Time;durP1;ratioP1;P1;durP2;ratioP2;P2;SDS_P1;SDS_P2;PMS_P1;PMS_P2;Temp;Humidity;BMP_temperature;BMP_pressure;BME280_temperature;BME280_humidity;BME280_pressure;Samples;Min_cycle;Max_cycle;Signal;HPM_P1;HPM_P2
2023/10/17 00:01:35;;;;;;;22.87;21.17;;;8.20;93.40;;;;;;5033090;28;20167;-89
2023/10/17 00:06:46;;;;;;;39.13;36.63;;;8.30;93.30;;;;;;5034454;28;20149;-89
2023/10/17 00:09:21;;;;;;;40.27;37.33;;;8.20;93.30;;;;;;5033981;28;20181;-89
2023/10/17 00:14:27;;;;;;;39.83;37.20;;;8.20;93.30;;;;;;5034261;28;20192;-89
2023/10/17 00:16:56;;;;;;;39.70;37.20;;;8.30;93.30;;;;;;5033949;28;20211;-90
2023/10/17 00:19:26;;;;;;;41.00;38.20;;;8.30;93.30;;;;;;5032639;28;20246;-89
2023/10/17 00:21:52;;;;;;;41.10;38.30;;;8.30;93.30;;;;;;5033864;28;20191;-90
2023/10/17 00:24:23;;;;;;;42.33;39.07;;;8.30;93.30;;;;;;5033589;28;20239;-89
2023/10/17 00:26:48;;;;;;;38.87;36.37;;;8.30;93.30;;;;;;5034001;28;20208;-89
2023/10/17 00:29:14;;;;;;;39.03;35.90;;;8.30;93.30;;;;;;5032507;28;20172;-89
2023/10/17 00:31:41;;;;;;;39.63;36.87;;;8.30;93.20;;;;;;5032576;28;20172;-90
2023/10/17 00:34:13;;;;;;;39.20;36.37;;;8.30;93.20;;;;;;5032390;28;20662;-90
2023/10/17 00:37:00;;;;;;;39.70;37.10;;;8.30;93.20;;;;;;5032498;28;20196;-89
2023/10/17 00:44:40;;;;;;;21.97;20.47;;;8.30;93.30;;;;;;5033757;28;20196;-89
2023/10/17 00:47:08;;;;;;;39.50;36.50;;;8.20;93.20;;;;;;5033432;28;20183;-89
2023/10/17 00:49:43;;;;;;;41.03;38.07;;;8.20;93.30;;;;;;5032322;28;20176;-90
2023/10/17 00:52:18;;;;;;;21.67;20.17;;;8.30;93.30;;;;;;5033416;28;20248;-90
2023/10/17 00:54:45;;;;;;;22.80;20.60;;;8.30;93.30;;;;;;5032248;28;20196;-89
2023/10/17 00:57:14;;;;;;;21.67;19.87;;;8.30;93.30;;;;;;5032345;28;20179;-90
2023/10/17 00:59:44;;;;;;;39.17;36.57;;;8.20;93.20;;;;;;5032050;28;20180;-90
2023/10/17 01:02:10;;;;;;;39.30;36.80;;;8.20;93.20;;;;;;5033559;28;20160;-90
2023/10/17 01:04:40;;;;;;;22.70;21.03;;;8.30;93.30;;;;;;5033369;28;20192;-89
2023/10/17 01:07:07;;;;;;;21.73;20.23;;;8.30;93.30;;;;;;5032047;28;20176;-89
2023/10/17 01:09:35;;;;;;;22.67;20.87;;;8.20;93.30;;;;;;5032945;28;20214;-89
2023/10/17 01:12:08;;;;;;;21.53;20.00;;;8.20;93.30;;;;;;5033202;28;20195;-89
2023/10/17 01:14:35;;;;;;;21.23;19.93;;;8.30;93.40;;;;;;5033130;28;20192;-90
2023/10/17 01:17:05;;;;;;;21.70;19.90;;;8.30;93.40;;;;;;5031933;28;20183;-90
2023/10/17 01:19:33;;;;;;;22.00;20.23;;;8.30;93.40;;;;;;5031908;28;20234;-90
2023/10/17 01:21:58;;;;;;;22.73;20.90;;;8.30;93.30;;;;;;5031788;28;20180;-89
2023/10/17 01:24:25;;;;;;;21.87;20.20;;;8.20;93.30;;;;;;5033104;28;20226;-90
2023/10/17 01:26:52;;;;;;;19.47;18.07;;;8.20;93.40;;;;;;5031850;28;20644;-89
2023/10/17 01:29:18;;;;;;;21.47;19.73;;;8.30;93.40;;;;;;5033326;28;20227;-89
2023/10/17 01:31:44;;;;;;;21.37;19.87;;;8.30;93.40;;;;;;5032953;28;20173;-89
2023/10/17 01:34:11;;;;;;;21.30;19.77;;;8.30;93.30;;;;;;5031961;28;20557;-89
2023/10/17 01:36:42;;;;;;;20.40;18.90;;;8.30;93.30;;;;;;5031704;28;20185;-89
2023/10/17 01:39:11;;;;;;;20.93;19.37;;;8.30;93.20;;;;;;5033089;28;20153;-89
2023/10/17 01:41:47;;;;;;;21.27;19.40;;;8.30;93.20;;;;;;5032822;28;20188;-89
2023/10/17 01:44:12;;;;;;;21.50;19.37;;;8.30;93.30;;;;;;5032997;28;20188;-89
2023/10/17 01:46:38;;;;;;;20.73;18.73;;;8.30;93.20;;;;;;5032848;28;20215;-89
2023/10/17 01:49:10;;;;;;;20.10;18.70;;;8.30;93.20;;;;;;5031723;28;20199;-89
2023/10/17 01:51:36;;;;;;;21.40;20.00;;;8.30;93.20;;;;;;5032687;28;20191;-89
2023/10/17 01:54:12;;;;;;;23.80;21.57;;;8.40;93.20;;;;;;5031577;28;20210;-89
2023/10/17 01:56:40;;;;;;;40.80;37.87;;;8.40;93.10;;;;;;5032937;28;20244;-90
2023/10/17 01:59:25;;;;;;;41.17;37.97;;;8.40;93.10;;;;;;5031529;28;20172;-89
2023/10/17 02:01:55;;;;;;;39.37;36.80;;;8.30;93.00;;;;;;5032682;28;20157;-90
2023/10/17 02:04:22;;;;;;;37.67;35.10;;;8.30;93.00;;;;;;5032615;28;20196;-89
2023/10/17 02:06:47;;;;;;;37.93;35.00;;;8.30;93.00;;;;;;5032698;28;20216;-89
2023/10/17 02:12:00;;;;;;;39.27;36.07;;;8.30;93.00;;;;;;5036865;28;20157;-89
2023/10/17 02:14:26;;;;;;;37.13;34.53;;;8.30;93.00;;;;;;5036244;28;20200;-89
2023/10/17 02:16:52;;;;;;;35.87;33.17;;;8.30;93.00;;;;;;5035270;28;20191;-89
2023/10/17 02:19:31;;;;;;;35.37;32.93;;;8.40;93.00;;;;;;5035031;28;20181;-88
2023/10/17 02:22:01;;;;;;;33.33;31.17;;;8.40;93.00;;;;;;5036205;28;20616;-89
2023/10/17 02:24:29;;;;;;;33.17;30.47;;;8.40;92.90;;;;;;5034714;28;20219;-88
2023/10/17 02:27:08;;;;;;;34.07;31.60;;;8.40;92.90;;;;;;5034819;28;20180;-89
2023/10/17 02:29:39;;;;;;;34.60;31.73;;;8.40;92.90;;;;;;5036397;28;20153;-89
2023/10/17 02:32:14;;;;;;;44.33;41.30;;;8.50;92.90;;;;;;5035354;28;20177;-89
2023/10/17 02:34:43;;;;;;;24.73;22.83;;;8.40;92.90;;;;;;5035862;28;20278;-89
2023/10/17 02:37:11;;;;;;;25.60;23.80;;;8.60;92.90;;;;;;5034916;28;20188;-89
2023/10/17 02:39:38;;;;;;;43.73;40.83;;;8.60;92.70;;;;;;5035794;28;20549;-89
2023/10/17 02:42:08;;;;;;;43.67;40.70;;;8.50;92.70;;;;;;5036133;28;20169;-89
2023/10/17 02:44:34;;;;;;;48.20;45.03;;;8.40;92.60;;;;;;5034548;28;20656;-90
2023/10/17 02:47:01;;;;;;;22.63;21.13;;;8.30;92.70;;;;;;5034523;28;20173;-89
2023/10/17 02:49:32;;;;;;;23.07;21.27;;;8.40;92.80;;;;;;5036234;28;20161;-90
2023/10/17 02:51:58;;;;;;;40.73;38.03;;;8.40;92.80;;;;;;5034417;28;20165;-89
2023/10/17 02:54:27;;;;;;;44.07;40.93;;;8.40;92.80;;;;;;5034319;28;20668;-89
2023/10/17 02:56:53;;;;;;;39.27;36.63;;;8.40;92.90;;;;;;5035509;28;20546;-89
2023/10/17 02:59:21;;;;;;;26.13;24.27;;;8.50;92.90;;;;;;5035483;28;20218;-89
2023/10/17 03:01:53;;;;;;;25.93;23.70;;;8.50;92.90;;;;;;5034274;28;20213;-89
2023/10/17 03:04:23;;;;;;;27.30;25.20;;;8.50;92.80;;;;;;5034154;28;20287;-89
2023/10/17 03:06:53;;;;;;;25.93;24.13;;;8.40;92.90;;;;;;5035319;28;20228;-90
2023/10/17 03:17:20;;;;;;;22.63;21.17;;;8.30;92.90;;;;;;5012504;28;20222;-90
2023/10/17 03:19:45;;;;;;;21.00;19.37;;;8.30;92.90;;;;;;5033556;28;20209;-90
2023/10/17 03:22:18;;;;;;;21.03;19.63;;;8.20;92.90;;;;;;5035208;28;20196;-90
2023/10/17 03:24:45;;;;;;;23.27;21.77;;;8.10;92.80;;;;;;5035139;28;20596;-89
2023/10/17 03:27:11;;;;;;;22.00;20.40;;;8.10;92.80;;;;;;5035199;28;20207;-90
2023/10/17 03:29:46;;;;;;;21.37;19.97;;;8.00;92.80;;;;;;5033700;28;20199;-89
2023/10/17 03:32:11;;;;;;;20.83;19.30;;;8.00;92.80;;;;;;5033827;28;20168;-90
2023/10/17 03:34:37;;;;;;;22.40;20.13;;;8.00;92.80;;;;;;5034780;28;20263;-90
2023/10/17 03:39:57;;;;;;;19.97;18.63;;;7.90;92.80;;;;;;5035311;28;20245;-89
2023/10/17 03:45:23;;;;;;;22.03;20.47;;;8.00;92.80;;;;;;5034628;28;20549;-89
2023/10/17 03:47:53;;;;;;;23.80;22.10;;;8.00;92.80;;;;;;5033318;28;20157;-90
2023/10/17 03:50:34;;;;;;;38.93;36.17;;;8.00;92.70;;;;;;5035029;28;20525;-90
2023/10/17 03:53:24;;;;;;;38.03;35.17;;;7.90;92.60;;;;;;5033245;28;20164;-89
2023/10/17 03:55:50;;;;;;;39.13;36.07;;;7.90;92.60;;;;;;5033602;28;20207;-89
2023/10/17 04:00:49;;;;;;;36.77;34.27;;;7.80;92.80;;;;;;5034281;28;20252;-90
2023/10/17 04:03:21;;;;;;;38.13;35.40;;;7.80;92.90;;;;;;5032971;28;20223;-89
2023/10/17 04:06:01;;;;;;;36.63;34.13;;;7.80;93.00;;;;;;5034089;28;20215;-90
2023/10/17 04:08:31;;;;;;;36.23;33.47;;;7.90;93.00;;;;;;5034115;28;20149;-89
2023/10/17 04:11:14;;;;;;;37.90;35.20;;;7.90;93.10;;;;;;5032827;28;20695;-89
2023/10/17 04:13:40;;;;;;;40.93;38.10;;;8.00;93.10;;;;;;5032924;28;20255;-89
2023/10/17 04:16:10;;;;;;;42.67;39.57;;;8.10;93.10;;;;;;5034139;28;20243;-89
2023/10/17 04:18:38;;;;;;;42.23;39.30;;;8.00;92.90;;;;;;5033908;28;20164;-89
2023/10/17 04:21:18;;;;;;;44.43;41.07;;;8.00;92.90;;;;;;5033871;28;20177;-89
2023/10/17 04:23:44;;;;;;;42.57;39.60;;;8.00;93.00;;;;;;5033827;28;20215;-89
2023/10/17 04:26:17;;;;;;;40.70;37.93;;;7.90;93.00;;;;;;5033805;28;20192;-90
2023/10/17 04:28:49;;;;;;;25.60;23.70;;;8.00;93.10;;;;;;5032727;28;20169;-89
2023/10/17 04:31:25;;;;;;;26.97;24.80;;;8.00;93.10;;;;;;5031890;28;20180;-90
2023/10/17 04:33:56;;;;;;;40.90;38.13;;;8.00;93.10;;;;;;5033678;28;20531;-90
2023/10/17 04:36:22;;;;;;;41.07;37.87;;;8.00;93.10;;;;;;5032547;28;20276;-90
2023/10/17 04:39:10;;;;;;;45.37;42.33;;;8.00;93.10;;;;;;5033645;28;20169;-90
2023/10/17 04:42:20;;;;;;;30.27;28.07;;;8.10;93.10;;;;;;5033459;28;20299;-89
2023/10/17 04:44:36;;;;;;;30.23;27.93;;;8.10;93.10;;;;;;5028133;28;20231;-90
2023/10/17 04:49:35;;;;;;;47.57;44.17;;;8.00;93.10;;;;;;5033750;28;20542;-89
2023/10/17 04:52:17;;;;;;;27.53;25.47;;;8.00;93.10;;;;;;5033865;28;20165;-89
2023/10/17 04:54:43;;;;;;;28.07;25.43;;;8.00;93.10;;;;;;5032122;28;20684;-89
2023/10/17 04:57:15;;;;;;;27.40;25.17;;;8.00;93.20;;;;;;5032078;28;20191;-88
2023/10/17 04:59:41;;;;;;;26.37;24.03;;;8.00;93.20;;;;;;5033406;28;20153;-89
2023/10/17 06:18:56;;;;;;;40.43;37.53;;;8.00;93.50;;;;;;5036869;28;20223;-90
2023/10/17 06:26:59;;;;;;;25.37;23.37;;;8.00;93.60;;;;;;5036134;28;20210;-90
2023/10/17 06:34:42;;;;;;;42.77;39.97;;;8.10;93.70;;;;;;5036188;28;20194;-89
2023/10/17 06:37:09;;;;;;;24.93;22.73;;;8.10;93.70;;;;;;5035934;28;20215;-90
2023/10/17 06:39:37;;;;;;;25.53;23.03;;;8.20;93.70;;;;;;5034705;28;20184;-89
2023/10/17 06:42:18;;;;;;;36.53;33.97;;;8.20;93.70;;;;;;5034687;28;20176;-89
2023/10/17 06:44:53;;;;;;;36.87;34.30;;;8.20;93.70;;;;;;5035688;28;20211;-90
2023/10/17 06:47:22;;;;;;;26.77;24.60;;;8.30;93.80;;;;;;5035721;28;20153;-90
2023/10/17 06:55:34;;;;;;;27.60;25.33;;;8.40;93.80;;;;;;5034766;28;20271;-89
2023/10/17 06:58:09;;;;;;;28.00;25.80;;;8.40;93.80;;;;;;5034427;28;20164;-89
2023/10/17 07:03:13;;;;;;;30.30;27.80;;;8.60;93.80;;;;;;5035889;28;20192;-89
2023/10/17 07:05:39;;;;;;;27.87;25.70;;;8.50;93.80;;;;;;5035259;28;20184;-89
2023/10/17 07:08:13;;;;;;;27.93;25.83;;;8.50;93.80;;;;;;5035669;28;20247;-90
2023/10/17 07:10:39;;;;;;;27.93;25.90;;;8.50;93.80;;;;;;5034095;28;20184;-88
2023/10/17 07:13:42;;;;;;;27.77;25.53;;;8.50;93.80;;;;;;5034104;28;20299;-90
2023/10/17 07:16:11;;;;;;;29.13;27.00;;;8.60;93.80;;;;;;5035182;28;20273;-90
2023/10/17 07:18:44;;;;;;;27.87;25.93;;;8.60;93.80;;;;;;5036153;28;20775;-88
2023/10/17 07:23:48;;;;;;;28.60;26.13;;;8.70;93.80;;;;;;5034949;28;20569;-90
2023/10/17 07:28:55;;;;;;;27.67;25.77;;;8.70;93.80;;;;;;5035318;28;20316;-90
2023/10/17 07:31:22;;;;;;;27.83;25.60;;;8.70;93.80;;;;;;5034968;28;20169;-89
2023/10/17 07:34:05;;;;;;;26.47;24.33;;;8.70;93.80;;;;;;5033595;28;20185;-89
2023/10/17 07:36:32;;;;;;;26.03;24.10;;;8.80;93.90;;;;;;5034889;28;20634;-89
2023/10/17 07:38:57;;;;;;;26.80;24.80;;;8.80;93.90;;;;;;5033853;28;20599;-90
2023/10/17 07:41:37;;;;;;;40.03;37.43;;;8.90;93.90;;;;;;5033501;28;20180;-90
2023/10/17 07:44:21;;;;;;;37.57;35.00;;;8.80;93.80;;;;;;5034597;28;20664;-90
2023/10/17 07:46:51;;;;;;;39.63;36.43;;;8.80;93.80;;;;;;5034242;28;20164;-89
2023/10/17 07:50:00;;;;;;;38.20;35.37;;;8.90;93.80;;;;;;5034590;28;20195;-88
2023/10/17 07:52:10;;;;;;;38.20;35.23;;;8.90;93.80;;;;;;5028702;28;20255;-89
2023/10/17 07:54:40;;;;;;;35.60;33.13;;;9.00;93.80;;;;;;5033258;28;20284;-89
2023/10/17 07:57:06;;;;;;;38.03;35.37;;;9.00;93.70;;;;;;5033182;28;20547;-90
2023/10/17 07:59:32;;;;;;;36.60;34.10;;;9.00;93.70;;;;;;5033091;28;20360;-89
2023/10/17 08:02:13;;;;;;;37.60;34.90;;;9.10;93.60;;;;;;5033046;28;20185;-89
2023/10/17 08:04:38;;;;;;;35.60;33.07;;;8.90;93.40;;;;;;5033976;28;20330;-89
2023/10/17 08:07:04;;;;;;;34.67;32.07;;;9.00;93.30;;;;;;5033468;28;20176;-90
2023/10/17 08:09:36;;;;;;;35.67;33.17;;;9.00;93.20;;;;;;5034266;28;20192;-90
2023/10/17 08:12:06;;;;;;;34.50;31.70;;;9.10;93.20;;;;;;5032958;28;20176;-90
2023/10/17 08:14:37;;;;;;;35.50;33.10;;;9.10;93.00;;;;;;5032746;28;20200;-89
2023/10/17 08:17:03;;;;;;;21.90;20.07;;;9.10;92.80;;;;;;5033057;28;20183;-87
2023/10/17 08:19:29;;;;;;;21.60;20.00;;;9.10;92.60;;;;;;5032755;28;20540;-88
2023/10/17 08:24:33;;;;;;;35.07;32.63;;;9.20;92.30;;;;;;5034057;28;20236;-90
2023/10/17 08:28:03;;;;;;;36.43;34.03;;;9.30;92.20;;;;;;5034275;28;20153;-89
2023/10/17 08:30:05;;;;;;;20.73;18.93;;;9.30;92.00;;;;;;5024823;28;20223;-89
2023/10/17 08:32:39;;;;;;;22.33;20.17;;;9.40;91.80;;;;;;5032637;28;20165;-89
2023/10/17 08:37:43;;;;;;;31.73;29.23;;;9.40;91.00;;;;;;5033976;28;20173;-89
2023/10/17 08:43:01;;;;;;;20.77;19.03;;;9.50;90.40;;;;;;5034264;28;20276;-89
2023/10/17 08:45:28;;;;;;;21.30;19.47;;;9.60;90.20;;;;;;5033557;28;20267;-89
2023/10/17 08:48:00;;;;;;;31.90;29.70;;;9.60;90.00;;;;;;5033483;28;20172;-89
2023/10/17 08:50:30;;;;;;;32.10;29.70;;;9.70;89.90;;;;;;5033435;28;20184;-89
2023/10/17 08:52:59;;;;;;;37.17;34.27;;;9.70;89.60;;;;;;5032374;28;20168;-89
2023/10/17 08:55:25;;;;;;;20.23;18.73;;;9.70;89.20;;;;;;5033565;28;20188;-89
2023/10/17 08:57:51;;;;;;;21.07;19.07;;;9.70;88.30;;;;;;5032273;28;20176;-89
2023/10/17 09:00:23;;;;;;;32.17;29.53;;;9.70;88.00;;;;;;5033785;28;20200;-89
2023/10/17 09:03:00;;;;;;;34.17;31.80;;;9.80;88.10;;;;;;5032145;28;20243;-89
2023/10/17 09:05:26;;;;;;;19.23;17.60;;;9.90;88.20;;;;;;5032047;28;20220;-88
2023/10/17 09:07:58;;;;;;;20.97;18.67;;;10.00;88.00;;;;;;5032142;28;20183;-89
2023/10/17 09:10:37;;;;;;;20.00;18.50;;;9.90;87.70;;;;;;5033224;28;20180;-89
2023/10/17 09:15:59;;;;;;;20.67;18.97;;;9.90;86.50;;;;;;5033554;28;20198;-88
2023/10/17 09:18:31;;;;;;;20.00;18.30;;;10.00;86.30;;;;;;5032795;28;20149;-89
2023/10/17 09:20:57;;;;;;;20.37;18.87;;;10.10;86.60;;;;;;5031968;28;20177;-89
2023/10/17 09:23:29;;;;;;;18.00;16.70;;;10.10;86.60;;;;;;5031886;28;20210;-90
2023/10/17 09:25:55;;;;;;;19.50;17.83;;;10.20;86.60;;;;;;5031932;28;20246;-89
2023/10/17 09:28:22;;;;;;;20.47;19.07;;;10.10;85.40;;;;;;5032141;28;20176;-88
2023/10/17 09:31:08;;;;;;;20.53;18.80;;;10.00;84.60;;;;;;5031967;28;20272;-90
2023/10/17 09:33:44;;;;;;;21.00;19.07;;;10.10;84.30;;;;;;5031879;28;20170;-89
2023/10/17 09:36:11;;;;;;;20.57;18.57;;;10.20;84.30;;;;;;5031793;28;20246;-89
2023/10/17 09:38:43;;;;;;;19.77;18.17;;;10.30;84.60;;;;;;5033102;28;20176;-88
2023/10/17 09:41:11;;;;;;;20.27;18.70;;;10.30;84.40;;;;;;5032013;28;20176;-87
2023/10/17 09:43:37;;;;;;;19.87;18.17;;;10.30;84.00;;;;;;5031787;28;20212;-89
2023/10/17 09:46:07;;;;;;;19.27;17.70;;;10.30;83.70;;;;;;5033008;28;20246;-88
2023/10/17 09:48:41;;;;;;;20.07;18.43;;;10.30;83.90;;;;;;5033013;28;20544;-89
2023/10/17 09:51:10;;;;;;;19.90;18.10;;;10.40;83.80;;;;;;5033054;28;20149;-89
2023/10/17 09:53:39;;;;;;;20.07;18.37;;;10.50;83.90;;;;;;5033468;28;20173;-89
2023/10/17 09:56:16;;;;;;;20.93;18.67;;;10.60;83.60;;;;;;5032763;28;20193;-88
2023/10/17 09:58:47;;;;;;;20.97;19.43;;;10.60;82.60;;;;;;5032931;28;20163;-88
2023/10/17 10:01:20;;;;;;;20.67;19.07;;;10.60;81.90;;;;;;5031586;28;20165;-86
2023/10/17 10:03:48;;;;;;;21.03;19.27;;;10.80;82.90;;;;;;5032692;28;20195;-88
2023/10/17 10:06:31;;;;;;;21.63;19.63;;;10.90;82.80;;;;;;5031599;28;20681;-88
2023/10/17 10:09:26;;;;;;;32.80;29.63;;;10.80;80.70;;;;;;5032970;28;20180;-88
2023/10/17 10:11:51;;;;;;;32.80;30.20;;;10.90;80.70;;;;;;5026315;28;20181;-88
2023/10/17 10:14:26;;;;;;;33.37;30.57;;;10.90;79.60;;;;;;5032755;28;20670;-90
2023/10/17 10:17:05;;;;;;;32.40;29.70;;;10.90;79.10;;;;;;5033153;28;20172;-88
2023/10/17 10:19:50;;;;;;;33.30;30.50;;;10.90;78.40;;;;;;5031607;28;20259;-88
2023/10/17 10:22:16;;;;;;;32.67;30.07;;;11.10;77.50;;;;;;5033177;28;20648;-89
2023/10/17 10:24:45;;;;;;;32.80;30.30;;;11.00;76.90;;;;;;5032733;28;20731;-89
2023/10/17 10:27:14;;;;;;;31.83;29.20;;;11.00;76.40;;;;;;5032583;28;20179;-88
2023/10/17 10:29:39;;;;;;;33.60;30.60;;;11.10;76.70;;;;;;5033199;28;20181;-89
2023/10/17 10:32:08;;;;;;;32.43;29.80;;;11.10;74.20;;;;;;5036564;28;20183;-87
2023/10/17 10:34:35;;;;;;;31.07;28.70;;;11.20;76.30;;;;;;5034714;28;20679;-89
2023/10/17 10:37:03;;;;;;;33.17;30.80;;;11.30;75.30;;;;;;5034769;28;20272;-88
2023/10/17 10:39:30;;;;;;;34.67;32.07;;;11.20;75.10;;;;;;5035937;28;20256;-89
2023/10/17 10:42:00;;;;;;;23.70;21.73;;;11.20;74.80;;;;;;5034811;28;20239;-88
2023/10/17 10:44:26;;;;;;;21.50;19.80;;;11.30;76.00;;;;;;5034432;28;20223;-87
2023/10/17 10:46:53;;;;;;;21.70;19.80;;;11.30;75.40;;;;;;5034603;28;20184;-89
2023/10/17 10:49:26;;;;;;;33.30;30.80;;;11.50;75.40;;;;;;5035793;28;20173;-87
2023/10/17 10:51:52;;;;;;;35.07;32.10;;;11.60;75.90;;;;;;5034540;28;20188;-90
2023/10/17 10:54:18;;;;;;;22.73;20.93;;;11.70;75.50;;;;;;5035907;28;20180;-88
2023/10/17 10:56:51;;;;;;;22.17;20.33;;;11.80;74.60;;;;;;5035732;28;20275;-90
2023/10/17 10:59:21;;;;;;;22.20;20.13;;;11.70;73.30;;;;;;5034403;28;20161;-88
2023/10/17 11:01:50;;;;;;;23.43;20.97;;;11.70;74.30;;;;;;5035585;28;20184;-89
2023/10/17 11:04:16;;;;;;;22.07;20.27;;;11.70;73.10;;;;;;5035247;28;20593;-89
2023/10/17 11:06:42;;;;;;;21.43;19.83;;;11.80;73.80;;;;;;5034191;28;20189;-89
2023/10/17 11:09:14;;;;;;;21.97;19.83;;;11.90;74.00;;;;;;5035343;28;20668;-87
2023/10/17 11:11:53;;;;;;;22.17;20.47;;;12.00;73.00;;;;;;5035390;28;20510;-89
2023/10/17 11:14:19;;;;;;;20.60;18.90;;;12.10;72.40;;;;;;5035561;28;20156;-89
2023/10/17 11:16:50;;;;;;;22.70;20.80;;;12.40;73.40;;;;;;5035385;28;20195;-89
2023/10/17 11:19:22;;;;;;;23.20;21.30;;;12.30;70.10;;;;;;5033926;28;20180;-89
2023/10/17 11:21:58;;;;;;;21.87;20.10;;;12.30;71.10;;;;;;5035538;28;20172;-89
2023/10/17 11:24:26;;;;;;;22.80;20.90;;;12.60;73.20;;;;;;5033871;28;20342;-91
2023/10/17 11:26:54;;;;;;;22.40;20.53;;;12.80;71.80;;;;;;5034056;28;20172;-89
2023/10/17 11:29:25;;;;;;;23.80;22.07;;;12.80;69.50;;;;;;5033835;28;20182;-89
2023/10/17 11:31:53;;;;;;;23.30;21.60;;;12.80;69.40;;;;;;5033751;28;20192;-89
2023/10/17 11:34:19;;;;;;;22.87;20.87;;;12.90;69.00;;;;;;5034796;28;20176;-89
2023/10/17 11:36:47;;;;;;;22.53;20.63;;;13.00;69.50;;;;;;5034856;28;20644;-90
2023/10/17 11:39:15;;;;;;;21.73;20.00;;;13.10;69.70;;;;;;5034729;28;20248;-89
2023/10/17 11:41:57;;;;;;;22.57;20.47;;;13.20;69.80;;;;;;5034549;28;20177;-89
2023/10/17 11:44:25;;;;;;;23.03;20.43;;;13.30;69.30;;;;;;5033389;28;20213;-90
2023/10/17 11:47:03;;;;;;;22.83;20.87;;;13.50;68.10;;;;;;5033411;28;20192;-89
2023/10/17 11:49:35;;;;;;;21.93;20.20;;;13.50;68.80;;;;;;5034651;28;20601;-88
2023/10/17 11:52:12;;;;;;;23.20;21.60;;;13.30;68.70;;;;;;5033416;28;20602;-89
2023/10/17 11:55:00;;;;;;;22.97;21.27;;;13.40;67.50;;;;;;5033365;28;20255;-89
2023/10/17 11:57:28;;;;;;;23.73;21.90;;;13.50;68.30;;;;;;5034566;28;20183;-89
2023/10/17 12:00:19;;;;;;;24.67;22.87;;;13.60;68.30;;;;;;5034773;28;20176;-89
2023/10/17 12:02:48;;;;;;;22.30;20.55;;;13.50;67.10;;;;;;5034300;28;20505;-89
2023/10/17 12:05:22;;;;;;;22.87;20.87;;;13.70;66.00;;;;;;5032939;28;20207;-89
2023/10/17 12:07:57;;;;;;;23.30;21.35;;;13.70;65.90;;;;;;5033105;28;20238;-88
2023/10/17 12:10:24;;;;;;;22.38;20.52;;;13.50;66.00;;;;;;5032877;28;20207;-89
2023/10/17 12:12:58;;;;;;;31.98;29.55;;;13.50;67.90;;;;;;5034091;28;20177;-90
2023/10/17 12:15:24;;;;;;;33.15;30.75;;;13.60;65.90;;;;;;5032810;28;20206;-88
2023/10/17 12:17:50;;;;;;;33.00;30.30;;;13.60;66.50;;;;;;5034098;28;20710;-89
2023/10/17 12:20:25;;;;;;;34.30;31.80;;;13.20;67.30;;;;;;5033954;28;20184;-89
2023/10/17 12:22:55;;;;;;;32.80;30.30;;;13.20;67.30;;;;;;5032686;28;20192;-89
2023/10/17 12:25:23;;;;;;;33.40;30.90;;;13.20;67.60;;;;;;5032578;28;20196;-89
2023/10/17 12:27:52;;;;;;;32.35;29.73;;;13.50;67.30;;;;;;5032686;28;20268;-89
2023/10/17 12:30:27;;;;;;;32.42;30.23;;;13.80;67.50;;;;;;5032648;28;20177;-89
2023/10/17 12:32:55;;;;;;;33.80;31.42;;;13.90;65.60;;;;;;5033821;28;20164;-89
2023/10/17 12:35:21;;;;;;;38.10;35.00;;;14.10;67.10;;;;;;5032566;28;20235;-89
2023/10/17 12:37:50;;;;;;;37.13;34.17;;;14.10;65.90;;;;;;5032613;28;20197;-89
2023/10/17 12:40:19;;;;;;;24.48;22.48;;;14.20;65.90;;;;;;5033688;28;20172;-88
2023/10/17 12:42:46;;;;;;;23.95;21.83;;;14.00;64.50;;;;;;5032332;28;20226;-89
2023/10/17 12:45:14;;;;;;;33.15;30.77;;;14.10;66.30;;;;;;5032261;28;20263;-89
2023/10/17 12:47:43;;;;;;;36.05;33.50;;;14.10;65.20;;;;;;5033512;28;20172;-89
2023/10/17 12:50:11;;;;;;;38.55;35.70;;;14.20;65.70;;;;;;5033124;28;20200;-89
2023/10/17 12:52:37;;;;;;;24.60;22.65;;;14.30;65.40;;;;;;5032411;28;20547;-89
2023/10/17 12:55:04;;;;;;;24.27;22.38;;;14.40;65.80;;;;;;5033356;28;20192;-89
2023/10/17 12:57:29;;;;;;;37.95;34.88;;;14.00;65.10;;;;;;5032087;28;20176;-90
2023/10/17 12:59:58;;;;;;;38.10;35.00;;;14.20;65.10;;;;;;5032229;28;20718;-89
2023/10/17 13:02:24;;;;;;;40.08;37.28;;;13.60;64.40;;;;;;5033359;28;20660;-89
2023/10/17 13:04:50;;;;;;;25.15;23.20;;;13.80;64.30;;;;;;5031992;28;20215;-89
2023/10/17 13:07:15;;;;;;;25.15;22.98;;;14.00;66.90;;;;;;5032016;28;20600;-89
2023/10/17 13:09:41;;;;;;;24.52;22.63;;;14.10;63.80;;;;;;5033249;28;20203;-89
2023/10/17 13:12:07;;;;;;;26.10;23.50;;;14.10;64.90;;;;;;5031995;28;20177;-89
2023/10/17 13:14:32;;;;;;;25.80;23.70;;;14.30;66.70;;;;;;5031868;28;20208;-89
2023/10/17 13:16:58;;;;;;;24.65;22.75;;;14.40;64.50;;;;;;5032038;28;20184;-90
2023/10/17 13:19:23;;;;;;;23.73;21.67;;;14.20;63.10;;;;;;5033265;28;20181;-90
2023/10/17 13:21:49;;;;;;;24.77;22.70;;;14.40;63.80;;;;;;5032038;28;20173;-89
2023/10/17 13:24:15;;;;;;;24.38;22.38;;;14.40;62.30;;;;;;5031825;28;20212;-90
2023/10/17 13:26:41;;;;;;;24.52;22.73;;;14.20;64.10;;;;;;5032004;28;20172;-90
2023/10/17 13:29:07;;;;;;;23.92;22.10;;;14.30;64.00;;;;;;5031781;28;20550;-89
2023/10/17 13:31:33;;;;;;;24.05;22.15;;;14.70;64.40;;;;;;5033592;28;20176;-91
2023/10/17 13:33:59;;;;;;;24.10;22.30;;;14.60;62.40;;;;;;5032038;28;20596;-91
2023/10/17 13:36:24;;;;;;;23.90;22.15;;;14.90;64.20;;;;;;5032872;28;20204;-89
2023/10/17 13:38:50;;;;;;;23.88;22.17;;;14.50;63.00;;;;;;5032285;28;20552;-90
2023/10/17 13:41:15;;;;;;;23.92;22.08;;;14.30;62.80;;;;;;5031745;28;20176;-89
2023/10/17 13:43:47;;;;;;;25.42;23.15;;;14.30;63.50;;;;;;5032935;28;20250;-90
2023/10/17 13:46:16;;;;;;;23.90;22.20;;;14.50;63.30;;;;;;5031715;28;20200;-90
2023/10/17 13:48:51;;;;;;;24.73;22.67;;;14.50;61.60;;;;;;5031743;28;20207;-89
2023/10/17 13:51:17;;;;;;;23.75;22.05;;;14.60;63.90;;;;;;5032089;28;20218;-90
2023/10/17 13:53:46;;;;;;;23.23;21.50;;;14.80;62.30;;;;;;5031727;28;20207;-89
2023/10/17 13:56:18;;;;;;;23.08;21.38;;;14.80;63.50;;;;;;5032822;28;20227;-90
2023/10/17 13:58:46;;;;;;;22.83;21.00;;;15.00;62.50;;;;;;5031594;28;20160;-89
2023/10/17 14:01:28;;;;;;;23.48;21.67;;;14.70;62.60;;;;;;5033248;28;20541;-91
2023/10/17 14:03:55;;;;;;;21.33;19.83;;;15.10;62.60;;;;;;5034479;28;20253;-89
2023/10/17 14:06:27;;;;;;;21.75;20.15;;;15.10;59.10;;;;;;5036569;28;20241;-89
2023/10/17 14:08:55;;;;;;;23.35;21.50;;;15.10;59.70;;;;;;5036432;28;20172;-89
2023/10/17 14:11:21;;;;;;;22.42;20.92;;;15.00;60.20;;;;;;5036635;28;20544;-89
2023/10/17 14:13:49;;;;;;;23.00;21.40;;;14.50;63.00;;;;;;5036656;28;20180;-89
2023/10/17 14:16:15;;;;;;;22.00;20.40;;;14.80;63.80;;;;;;5035493;28;20196;-88
2023/10/17 14:18:46;;;;;;;23.48;21.48;;;14.90;59.60;;;;;;5036643;28;20247;-89
2023/10/17 14:21:34;;;;;;;22.20;20.60;;;14.80;60.10;;;;;;5035053;28;20720;-88
2023/10/17 14:24:10;;;;;;;23.27;21.38;;;14.70;61.20;;;;;;5036669;28;20239;-88
2023/10/17 14:26:36;;;;;;;23.10;21.13;;;14.60;62.60;;;;;;5035207;28;20164;-89
2023/10/17 14:29:02;;;;;;;22.30;20.77;;;14.70;61.90;;;;;;5034830;28;20169;-88
2023/10/17 14:31:31;;;;;;;23.45;21.48;;;14.70;60.10;;;;;;5035110;28;20523;-89
2023/10/17 14:33:59;;;;;;;22.05;20.42;;;14.30;62.50;;;;;;5034869;28;20188;-88
2023/10/17 14:36:26;;;;;;;21.70;20.02;;;14.20;60.80;;;;;;5035941;28;20571;-88
2023/10/17 14:38:52;;;;;;;30.95;28.75;;;13.90;61.50;;;;;;5034756;28;20186;-89
2023/10/17 14:41:18;;;;;;;31.63;29.23;;;13.70;61.10;;;;;;5034810;28;20664;-89
2023/10/17 14:43:46;;;;;;;32.13;29.83;;;13.70;63.70;;;;;;5036338;28;20550;-90
2023/10/17 14:46:12;;;;;;;32.55;29.95;;;13.50;63.00;;;;;;5034662;28;20193;-89
2023/10/17 14:48:39;;;;;;;31.42;29.27;;;13.30;64.20;;;;;;5034863;28;20188;-89
2023/10/17 14:51:04;;;;;;;32.40;30.20;;;13.60;64.00;;;;;;5034960;28;20165;-90
2023/10/17 14:53:30;;;;;;;31.40;29.00;;;13.60;62.60;;;;;;5034803;28;20241;-89
2023/10/17 14:56:04;;;;;;;33.03;30.63;;;13.20;62.50;;;;;;5034367;28;20206;-90
2023/10/17 14:58:32;;;;;;;32.35;29.92;;;13.30;64.10;;;;;;5035197;28;20173;-89
2023/10/17 15:00:58;;;;;;;32.42;30.02;;;13.60;65.30;;;;;;5035704;28;20257;-88
2023/10/17 15:03:25;;;;;;;33.40;30.75;;;13.30;64.20;;;;;;5036211;28;20236;-88
2023/10/17 15:05:54;;;;;;;32.30;29.60;;;13.00;63.10;;;;;;5034645;28;20279;-88
2023/10/17 15:08:19;;;;;;;23.60;21.80;;;13.20;65.00;;;;;;5034314;28;20173;-89
2023/10/17 15:10:45;;;;;;;23.10;21.40;;;13.10;64.00;;;;;;5035371;28;20185;-88
2023/10/17 15:13:11;;;;;;;33.50;31.13;;;12.70;64.40;;;;;;5035264;28;20199;-88